sensor_id;sensor_type;location;lat;lon;timestamp;P1;durP1;ratioP1;P2;durP2;ratioP2
44204;SDS011;30163;42.698;23.344;2022-11-15T00:00:49;363.85;;;144.15;;
44204;SDS011;30163;42.698;23.344;2022-11-15T00:03:15;351.48;;;136.60;;
44204;SDS011;30163;42.698;23.344;2022-11-15T00:05:42;300.65;;;123.10;;
44204;SDS011;30163;42.698;23.344;2022-11-15T00:08:07;307.35;;;119.45;;
44204;SDS011;30163;42.698;23.344;2022-11-15T00:10:33;303.77;;;116.43;;
44204;SDS011;30163;42.698;23.344;2022-11-15T00:12:58;301.98;;;117.97;;
44204;SDS011;30163;42.698;23.344;2022-11-15T00:15:24;317.17;;;117.40;;
44204;SDS011;30163;42.698;23.344;2022-11-15T00:17:49;305.40;;;117.10;;
44204;SDS011;30163;42.698;23.344;2022-11-15T00:20:15;304.92;;;112.25;;
44204;SDS011;30163;42.698;23.344;2022-11-15T00:22:42;290.42;;;110.18;;
44204;SDS011;30163;42.698;23.344;2022-11-15T00:25:07;297.05;;;112.25;;
44204;SDS011;30163;42.698;23.344;2022-11-15T00:27:33;309.95;;;111.43;;
44204;SDS011;30163;42.698;23.344;2022-11-15T00:29:58;294.42;;;109.35;;
44204;SDS011;30163;42.698;23.344;2022-11-15T00:32:23;309.13;;;108.85;;
44204;SDS011;30163;42.698;23.344;2022-11-15T00:34:49;290.20;;;103.57;;
44204;SDS011;30163;42.698;23.344;2022-11-15T00:37:14;257.42;;;96.25;;
44204;SDS011;30163;42.698;23.344;2022-11-15T00:39:39;264.20;;;98.10;;
44204;SDS011;30163;42.698;23.344;2022-11-15T00:42:05;295.65;;;106.57;;
44204;SDS011;30163;42.698;23.344;2022-11-15T00:44:30;285.27;;;100.43;;
44204;SDS011;30163;42.698;23.344;2022-11-15T00:46:57;275.95;;;102.32;;
44204;SDS011;30163;42.698;23.344;2022-11-15T00:49:22;292.67;;;103.90;;
44204;SDS011;30163;42.698;23.344;2022-11-15T00:51:48;304.38;;;110.45;;
44204;SDS011;30163;42.698;23.344;2022-11-15T00:54:13;292.30;;;107.53;;
44204;SDS011;30163;42.698;23.344;2022-11-15T00:56:38;274.40;;;104.18;;
44204;SDS011;30163;42.698;23.344;2022-11-15T00:59:04;310.10;;;106.60;;
44204;SDS011;30163;42.698;23.344;2022-11-15T01:01:29;296.92;;;105.95;;
44204;SDS011;30163;42.698;23.344;2022-11-15T01:03:54;284.35;;;102.97;;
44204;SDS011;30163;42.698;23.344;2022-11-15T01:06:20;312.55;;;109.53;;
44204;SDS011;30163;42.698;23.344;2022-11-15T01:08:45;295.05;;;104.88;;
44204;SDS011;30163;42.698;23.344;2022-11-15T01:11:11;291.70;;;105.70;;
44204;SDS011;30163;42.698;23.344;2022-11-15T01:13:37;290.40;;;102.45;;
44204;SDS011;30163;42.698;23.344;2022-11-15T01:16:11;273.77;;;100.00;;
44204;SDS011;30163;42.698;23.344;2022-11-15T01:18:38;274.75;;;103.35;;
44204;SDS011;30163;42.698;23.344;2022-11-15T01:21:05;273.52;;;99.55;;
44204;SDS011;30163;42.698;23.344;2022-11-15T01:23:31;296.15;;;104.78;;
44204;SDS011;30163;42.698;23.344;2022-11-15T01:26:04;282.42;;;107.70;;
44204;SDS011;30163;42.698;23.344;2022-11-15T01:28:32;330.95;;;110.55;;
44204;SDS011;30163;42.698;23.344;2022-11-15T01:30:59;298.38;;;110.97;;
44204;SDS011;30163;42.698;23.344;2022-11-15T01:33:25;343.77;;;137.10;;
44204;SDS011;30163;42.698;23.344;2022-11-15T01:35:50;342.23;;;130.13;;
44204;SDS011;30163;42.698;23.344;2022-11-15T01:38:15;307.92;;;110.82;;
44204;SDS011;30163;42.698;23.344;2022-11-15T01:40:41;323.73;;;107.95;;
44204;SDS011;30163;42.698;23.344;2022-11-15T01:48:48;304.05;;;111.13;;
44204;SDS011;30163;42.698;23.344;2022-11-15T01:51:16;293.42;;;104.07;;
44204;SDS011;30163;42.698;23.344;2022-11-15T01:53:43;295.50;;;107.72;;
44204;SDS011;30163;42.698;23.344;2022-11-15T01:56:11;284.23;;;108.15;;
44204;SDS011;30163;42.698;23.344;2022-11-15T01:58:39;294.42;;;103.25;;
44204;SDS011;30163;42.698;23.344;2022-11-15T02:01:06;288.35;;;104.35;;
44204;SDS011;30163;42.698;23.344;2022-11-15T02:03:40;297.00;;;105.82;;
44204;SDS011;30163;42.698;23.344;2022-11-15T02:06:09;285.88;;;110.50;;
44204;SDS011;30163;42.698;23.344;2022-11-15T02:08:35;303.08;;;112.15;;
44204;SDS011;30163;42.698;23.344;2022-11-15T02:11:00;318.20;;;112.63;;
44204;SDS011;30163;42.698;23.344;2022-11-15T02:13:25;290.58;;;107.75;;
44204;SDS011;30163;42.698;23.344;2022-11-15T02:18:41;285.83;;;106.93;;
44204;SDS011;30163;42.698;23.344;2022-11-15T02:32:06;304.27;;;102.60;;
44204;SDS011;30163;42.698;23.344;2022-11-15T02:39:56;353.58;;;126.35;;
44204;SDS011;30163;42.698;23.344;2022-11-15T02:42:26;328.02;;;121.32;;
44204;SDS011;30163;42.698;23.344;2022-11-15T02:45:13;295.73;;;107.32;;
44204;SDS011;30163;42.698;23.344;2022-11-15T02:47:44;310.20;;;106.97;;
44204;SDS011;30163;42.698;23.344;2022-11-15T02:50:12;284.67;;;106.28;;
44204;SDS011;30163;42.698;23.344;2022-11-15T02:52:38;303.90;;;110.13;;
44204;SDS011;30163;42.698;23.344;2022-11-15T02:55:04;298.92;;;111.18;;
44204;SDS011;30163;42.698;23.344;2022-11-15T03:05:34;301.02;;;121.80;;
44204;SDS011;30163;42.698;23.344;2022-11-15T03:11:15;341.52;;;103.05;;
44204;SDS011;30163;42.698;23.344;2022-11-15T03:19:10;453.27;;;102.03;;
44204;SDS011;30163;42.698;23.344;2022-11-15T03:21:39;385.52;;;97.00;;
44204;SDS011;30163;42.698;23.344;2022-11-15T03:24:08;353.77;;;96.30;;
44204;SDS011;30163;42.698;23.344;2022-11-15T03:26:34;531.45;;;105.10;;
44204;SDS011;30163;42.698;23.344;2022-11-15T03:29:03;364.23;;;95.43;;
44204;SDS011;30163;42.698;23.344;2022-11-15T03:31:31;463.58;;;97.75;;
44204;SDS011;30163;42.698;23.344;2022-11-15T03:34:39;586.55;;;97.25;;
44204;SDS011;30163;42.698;23.344;2022-11-15T03:37:13;448.02;;;89.07;;
44204;SDS011;30163;42.698;23.344;2022-11-15T03:39:40;388.17;;;101.75;;
44204;SDS011;30163;42.698;23.344;2022-11-15T03:42:20;547.90;;;105.47;;
44204;SDS011;30163;42.698;23.344;2022-11-15T03:47:29;622.47;;;110.63;;
44204;SDS011;30163;42.698;23.344;2022-11-15T03:50:19;525.15;;;112.30;;
44204;SDS011;30163;42.698;23.344;2022-11-15T03:52:44;520.47;;;112.07;;
44204;SDS011;30163;42.698;23.344;2022-11-15T03:55:12;425.38;;;113.45;;
44204;SDS011;30163;42.698;23.344;2022-11-15T03:57:39;498.42;;;113.90;;
44204;SDS011;30163;42.698;23.344;2022-11-15T04:00:04;450.10;;;113.25;;
44204;SDS011;30163;42.698;23.344;2022-11-15T04:02:30;452.90;;;116.72;;
44204;SDS011;30163;42.698;23.344;2022-11-15T04:04:56;442.15;;;116.55;;
44204;SDS011;30163;42.698;23.344;2022-11-15T04:07:21;446.00;;;115.53;;
44204;SDS011;30163;42.698;23.344;2022-11-15T04:09:46;452.40;;;118.25;;
44204;SDS011;30163;42.698;23.344;2022-11-15T04:12:27;462.30;;;115.97;;
44204;SDS011;30163;42.698;23.344;2022-11-15T04:15:01;433.98;;;118.43;;
44204;SDS011;30163;42.698;23.344;2022-11-15T04:17:32;402.98;;;118.28;;
44204;SDS011;30163;42.698;23.344;2022-11-15T04:20:00;370.55;;;115.85;;
44204;SDS011;30163;42.698;23.344;2022-11-15T04:22:44;391.58;;;120.72;;
44204;SDS011;30163;42.698;23.344;2022-11-15T04:25:28;396.70;;;117.80;;
44204;SDS011;30163;42.698;23.344;2022-11-15T04:27:54;383.58;;;116.60;;
44204;SDS011;30163;42.698;23.344;2022-11-15T04:30:19;360.42;;;116.50;;
44204;SDS011;30163;42.698;23.344;2022-11-15T04:32:44;366.15;;;121.55;;
44204;SDS011;30163;42.698;23.344;2022-11-15T04:35:10;316.42;;;107.10;;
44204;SDS011;30163;42.698;23.344;2022-11-15T04:37:35;273.50;;;93.93;;
44204;SDS011;30163;42.698;23.344;2022-11-15T04:40:00;282.52;;;99.55;;
44204;SDS011;30163;42.698;23.344;2022-11-15T04:42:26;278.73;;;99.47;;
44204;SDS011;30163;42.698;23.344;2022-11-15T04:44:51;282.85;;;98.15;;
44204;SDS011;30163;42.698;23.344;2022-11-15T04:47:17;301.23;;;104.10;;
44204;SDS011;30163;42.698;23.344;2022-11-15T04:49:42;283.27;;;101.07;;
44204;SDS011;30163;42.698;23.344;2022-11-15T04:52:09;293.77;;;100.43;;
44204;SDS011;30163;42.698;23.344;2022-11-15T04:54:34;302.88;;;108.78;;
44204;SDS011;30163;42.698;23.344;2022-11-15T04:56:59;288.38;;;101.93;;
44204;SDS011;30163;42.698;23.344;2022-11-15T04:59:25;289.55;;;103.63;;
44204;SDS011;30163;42.698;23.344;2022-11-15T05:01:50;306.63;;;107.25;;
44204;SDS011;30163;42.698;23.344;2022-11-15T05:04:15;286.08;;;104.50;;
44204;SDS011;30163;42.698;23.344;2022-11-15T05:06:44;302.23;;;107.63;;
44204;SDS011;30163;42.698;23.344;2022-11-15T05:09:11;304.35;;;106.32;;
44204;SDS011;30163;42.698;23.344;2022-11-15T05:11:38;320.92;;;107.18;;
44204;SDS011;30163;42.698;23.344;2022-11-15T05:14:03;376.85;;;130.18;;
44204;SDS011;30163;42.698;23.344;2022-11-15T05:16:29;373.40;;;129.73;;
44204;SDS011;30163;42.698;23.344;2022-11-15T05:18:54;375.20;;;128.48;;
44204;SDS011;30163;42.698;23.344;2022-11-15T05:21:20;351.55;;;122.47;;
44204;SDS011;30163;42.698;23.344;2022-11-15T05:23:45;337.10;;;118.18;;
44204;SDS011;30163;42.698;23.344;2022-11-15T05:26:11;359.42;;;124.95;;
44204;SDS011;30163;42.698;23.344;2022-11-15T05:28:37;401.63;;;125.25;;
44204;SDS011;30163;42.698;23.344;2022-11-15T05:31:06;387.58;;;122.22;;
44204;SDS011;30163;42.698;23.344;2022-11-15T05:33:34;373.52;;;122.35;;
44204;SDS011;30163;42.698;23.344;2022-11-15T05:38:43;370.25;;;122.22;;
44204;SDS011;30163;42.698;23.344;2022-11-15T05:41:09;377.52;;;126.40;;
44204;SDS011;30163;42.698;23.344;2022-11-15T05:43:35;365.50;;;133.15;;
44204;SDS011;30163;42.698;23.344;2022-11-15T05:46:01;318.90;;;120.25;;
44204;SDS011;30163;42.698;23.344;2022-11-15T05:48:27;311.38;;;112.55;;
44204;SDS011;30163;42.698;23.344;2022-11-15T05:50:52;288.20;;;105.90;;
44204;SDS011;30163;42.698;23.344;2022-11-15T05:53:18;289.00;;;104.35;;
44204;SDS011;30163;42.698;23.344;2022-11-15T05:55:44;280.50;;;105.32;;
44204;SDS011;30163;42.698;23.344;2022-11-15T05:58:10;276.23;;;101.07;;
44204;SDS011;30163;42.698;23.344;2022-11-15T06:00:36;277.88;;;102.82;;
44204;SDS011;30163;42.698;23.344;2022-11-15T06:03:01;273.67;;;99.97;;
44204;SDS011;30163;42.698;23.344;2022-11-15T06:05:27;276.65;;;106.10;;
44204;SDS011;30163;42.698;23.344;2022-11-15T06:07:52;260.30;;;98.03;;
44204;SDS011;30163;42.698;23.344;2022-11-15T06:10:17;271.40;;;93.85;;
44204;SDS011;30163;42.698;23.344;2022-11-15T06:12:43;265.17;;;83.50;;
44204;SDS011;30163;42.698;23.344;2022-11-15T06:15:08;245.63;;;88.20;;
44204;SDS011;30163;42.698;23.344;2022-11-15T06:17:34;252.82;;;83.30;;
44204;SDS011;30163;42.698;23.344;2022-11-15T06:19:59;238.93;;;81.80;;
44204;SDS011;30163;42.698;23.344;2022-11-15T06:22:24;244.98;;;87.60;;
44204;SDS011;30163;42.698;23.344;2022-11-15T06:24:50;269.90;;;99.35;;
44204;SDS011;30163;42.698;23.344;2022-11-15T06:27:15;271.27;;;98.07;;
44204;SDS011;30163;42.698;23.344;2022-11-15T06:29:41;237.23;;;83.55;;
44204;SDS011;30163;42.698;23.344;2022-11-15T06:32:06;263.60;;;99.13;;
44204;SDS011;30163;42.698;23.344;2022-11-15T06:34:31;256.38;;;85.13;;
44204;SDS011;30163;42.698;23.344;2022-11-15T06:36:57;220.75;;;68.72;;
44204;SDS011;30163;42.698;23.344;2022-11-15T06:39:22;230.70;;;71.60;;
44204;SDS011;30163;42.698;23.344;2022-11-15T06:41:47;221.90;;;70.57;;
44204;SDS011;30163;42.698;23.344;2022-11-15T06:44:13;219.02;;;73.28;;
44204;SDS011;30163;42.698;23.344;2022-11-15T06:46:38;201.63;;;65.18;;
44204;SDS011;30163;42.698;23.344;2022-11-15T06:49:04;211.80;;;62.13;;
44204;SDS011;30163;42.698;23.344;2022-11-15T06:51:29;213.68;;;62.30;;
44204;SDS011;30163;42.698;23.344;2022-11-15T06:53:54;213.68;;;61.42;;
44204;SDS011;30163;42.698;23.344;2022-11-15T06:56:20;206.05;;;62.80;;
44204;SDS011;30163;42.698;23.344;2022-11-15T06:58:45;209.52;;;66.57;;
44204;SDS011;30163;42.698;23.344;2022-11-15T07:01:11;212.07;;;63.70;;
44204;SDS011;30163;42.698;23.344;2022-11-15T07:03:38;201.75;;;68.15;;
44204;SDS011;30163;42.698;23.344;2022-11-15T07:06:04;216.27;;;63.05;;
44204;SDS011;30163;42.698;23.344;2022-11-15T07:08:30;195.65;;;59.08;;
44204;SDS011;30163;42.698;23.344;2022-11-15T07:10:59;171.10;;;57.50;;
44204;SDS011;30163;42.698;23.344;2022-11-15T07:13:30;154.98;;;54.05;;
44204;SDS011;30163;42.698;23.344;2022-11-15T07:16:06;160.65;;;55.50;;
44204;SDS011;30163;42.698;23.344;2022-11-15T07:18:33;166.68;;;57.25;;
44204;SDS011;30163;42.698;23.344;2022-11-15T07:21:00;180.30;;;59.72;;
44204;SDS011;30163;42.698;23.344;2022-11-15T07:23:27;158.82;;;58.13;;
44204;SDS011;30163;42.698;23.344;2022-11-15T07:25:52;164.30;;;56.33;;
44204;SDS011;30163;42.698;23.344;2022-11-15T07:28:18;161.10;;;56.25;;
44204;SDS011;30163;42.698;23.344;2022-11-15T07:30:43;151.98;;;57.28;;
44204;SDS011;30163;42.698;23.344;2022-11-15T07:33:09;132.88;;;50.63;;
44204;SDS011;30163;42.698;23.344;2022-11-15T07:35:34;129.55;;;48.28;;
44204;SDS011;30163;42.698;23.344;2022-11-15T07:38:00;129.38;;;46.70;;
44204;SDS011;30163;42.698;23.344;2022-11-15T07:40:27;119.20;;;45.15;;
44204;SDS011;30163;42.698;23.344;2022-11-15T07:43:01;126.45;;;44.05;;
44204;SDS011;30163;42.698;23.344;2022-11-15T07:45:27;137.68;;;48.22;;
44204;SDS011;30163;42.698;23.344;2022-11-15T07:47:52;123.15;;;47.38;;
44204;SDS011;30163;42.698;23.344;2022-11-15T07:50:19;135.27;;;47.58;;
44204;SDS011;30163;42.698;23.344;2022-11-15T07:52:44;120.38;;;48.08;;
44204;SDS011;30163;42.698;23.344;2022-11-15T07:55:10;140.48;;;47.38;;
44204;SDS011;30163;42.698;23.344;2022-11-15T07:57:36;143.15;;;52.55;;
44204;SDS011;30163;42.698;23.344;2022-11-15T08:00:01;135.82;;;51.63;;
44204;SDS011;30163;42.698;23.344;2022-11-15T08:02:28;135.60;;;51.60;;
44204;SDS011;30163;42.698;23.344;2022-11-15T08:04:53;137.25;;;53.83;;
44204;SDS011;30163;42.698;23.344;2022-11-15T08:07:19;159.13;;;52.17;;
44204;SDS011;30163;42.698;23.344;2022-11-15T08:09:44;140.25;;;55.08;;
44204;SDS011;30163;42.698;23.344;2022-11-15T08:12:09;140.35;;;53.30;;
44204;SDS011;30163;42.698;23.344;2022-11-15T08:14:35;152.95;;;56.35;;
44204;SDS011;30163;42.698;23.344;2022-11-15T08:17:01;152.35;;;57.67;;
44204;SDS011;30163;42.698;23.344;2022-11-15T08:19:26;158.85;;;57.97;;
44204;SDS011;30163;42.698;23.344;2022-11-15T08:21:52;157.00;;;60.95;;
44204;SDS011;30163;42.698;23.344;2022-11-15T08:24:17;150.43;;;58.63;;
44204;SDS011;30163;42.698;23.344;2022-11-15T08:26:43;170.95;;;61.72;;
44204;SDS011;30163;42.698;23.344;2022-11-15T08:29:08;160.18;;;59.92;;
44204;SDS011;30163;42.698;23.344;2022-11-15T08:31:34;154.77;;;59.67;;
44204;SDS011;30163;42.698;23.344;2022-11-15T08:34:01;148.55;;;59.45;;
44204;SDS011;30163;42.698;23.344;2022-11-15T08:36:27;155.55;;;58.22;;
44204;SDS011;30163;42.698;23.344;2022-11-15T08:38:53;171.27;;;60.47;;
44204;SDS011;30163;42.698;23.344;2022-11-15T08:41:26;163.57;;;58.38;;
44204;SDS011;30163;42.698;23.344;2022-11-15T08:43:53;158.88;;;61.65;;
44204;SDS011;30163;42.698;23.344;2022-11-15T08:46:18;143.00;;;59.45;;
44204;SDS011;30163;42.698;23.344;2022-11-15T08:48:44;171.93;;;64.18;;
44204;SDS011;30163;42.698;23.344;2022-11-15T08:51:09;169.43;;;64.43;;
44204;SDS011;30163;42.698;23.344;2022-11-15T08:53:35;175.68;;;65.40;;
44204;SDS011;30163;42.698;23.344;2022-11-15T08:56:00;175.57;;;64.95;;
44204;SDS011;30163;42.698;23.344;2022-11-15T08:58:26;167.23;;;64.43;;
44204;SDS011;30163;42.698;23.344;2022-11-15T09:00:51;159.55;;;66.80;;
44204;SDS011;30163;42.698;23.344;2022-11-15T09:03:17;171.95;;;65.90;;
44204;SDS011;30163;42.698;23.344;2022-11-15T09:05:42;152.40;;;63.85;;
44204;SDS011;30163;42.698;23.344;2022-11-15T09:08:08;161.48;;;63.20;;
44204;SDS011;30163;42.698;23.344;2022-11-15T09:10:33;163.02;;;67.88;;
44204;SDS011;30163;42.698;23.344;2022-11-15T09:12:58;165.93;;;65.68;;
44204;SDS011;30163;42.698;23.344;2022-11-15T09:15:24;164.30;;;64.07;;
44204;SDS011;30163;42.698;23.344;2022-11-15T09:17:49;167.20;;;71.00;;
44204;SDS011;30163;42.698;23.344;2022-11-15T09:20:15;191.50;;;68.25;;
44204;SDS011;30163;42.698;23.344;2022-11-15T09:22:40;168.05;;;65.07;;
44204;SDS011;30163;42.698;23.344;2022-11-15T09:25:06;177.00;;;68.90;;
44204;SDS011;30163;42.698;23.344;2022-11-15T09:27:32;171.68;;;65.85;;
44204;SDS011;30163;42.698;23.344;2022-11-15T09:29:57;193.05;;;71.25;;
44204;SDS011;30163;42.698;23.344;2022-11-15T09:32:23;175.45;;;68.07;;
44204;SDS011;30163;42.698;23.344;2022-11-15T09:34:49;150.23;;;62.80;;
44204;SDS011;30163;42.698;23.344;2022-11-15T09:37:15;177.05;;;67.97;;
44204;SDS011;30163;42.698;23.344;2022-11-15T09:39:41;165.35;;;67.82;;
44204;SDS011;30163;42.698;23.344;2022-11-15T09:47:38;182.70;;;72.75;;
44204;SDS011;30163;42.698;23.344;2022-11-15T09:50:12;193.38;;;72.45;;
44204;SDS011;30163;42.698;23.344;2022-11-15T09:52:41;183.15;;;72.57;;
44204;SDS011;30163;42.698;23.344;2022-11-15T09:55:10;178.55;;;71.03;;
44204;SDS011;30163;42.698;23.344;2022-11-15T09:57:45;193.98;;;72.28;;
44204;SDS011;30163;42.698;23.344;2022-11-15T10:00:32;192.73;;;72.82;;
44204;SDS011;30163;42.698;23.344;2022-11-15T10:03:12;185.93;;;74.80;;
44204;SDS011;30163;42.698;23.344;2022-11-15T10:05:39;192.98;;;77.03;;
44204;SDS011;30163;42.698;23.344;2022-11-15T10:10:55;226.30;;;77.15;;
44204;SDS011;30163;42.698;23.344;2022-11-15T10:13:23;195.57;;;77.57;;
44204;SDS011;30163;42.698;23.344;2022-11-15T10:15:51;190.35;;;75.57;;
44204;SDS011;30163;42.698;23.344;2022-11-15T10:20:48;206.30;;;78.72;;
44204;SDS011;30163;42.698;23.344;2022-11-15T10:23:24;207.07;;;82.78;;
44204;SDS011;30163;42.698;23.344;2022-11-15T10:25:53;192.60;;;78.15;;
44204;SDS011;30163;42.698;23.344;2022-11-15T10:30:56;198.00;;;79.90;;
44204;SDS011;30163;42.698;23.344;2022-11-15T10:33:27;202.55;;;79.97;;
44204;SDS011;30163;42.698;23.344;2022-11-15T10:38:55;201.85;;;77.95;;
44204;SDS011;30163;42.698;23.344;2022-11-15T10:41:21;196.82;;;77.82;;
44204;SDS011;30163;42.698;23.344;2022-11-15T10:46:32;218.30;;;86.38;;
44204;SDS011;30163;42.698;23.344;2022-11-15T10:49:15;215.23;;;84.28;;
44204;SDS011;30163;42.698;23.344;2022-11-15T10:51:44;243.80;;;94.78;;
44204;SDS011;30163;42.698;23.344;2022-11-15T10:54:15;219.00;;;81.70;;
44204;SDS011;30163;42.698;23.344;2022-11-15T10:57:06;229.40;;;90.53;;
44204;SDS011;30163;42.698;23.344;2022-11-15T10:59:37;205.65;;;84.50;;
44204;SDS011;30163;42.698;23.344;2022-11-15T11:02:20;211.68;;;81.65;;
44204;SDS011;30163;42.698;23.344;2022-11-15T11:04:57;233.02;;;89.20;;
44204;SDS011;30163;42.698;23.344;2022-11-15T11:07:24;236.00;;;92.55;;
44204;SDS011;30163;42.698;23.344;2022-11-15T11:09:59;214.55;;;87.00;;
44204;SDS011;30163;42.698;23.344;2022-11-15T11:12:42;215.18;;;91.28;;
44204;SDS011;30163;42.698;23.344;2022-11-15T11:15:13;206.85;;;85.05;;
44204;SDS011;30163;42.698;23.344;2022-11-15T11:25:30;182.98;;;73.80;;
44204;SDS011;30163;42.698;23.344;2022-11-15T11:30:57;190.55;;;74.53;;
44204;SDS011;30163;42.698;23.344;2022-11-15T11:33:50;154.82;;;68.45;;
44204;SDS011;30163;42.698;23.344;2022-11-15T11:36:59;159.45;;;70.70;;
44204;SDS011;30163;42.698;23.344;2022-11-15T11:39:51;176.57;;;67.80;;
44204;SDS011;30163;42.698;23.344;2022-11-15T11:47:30;173.25;;;71.57;;
44204;SDS011;30163;42.698;23.344;2022-11-15T11:50:15;171.70;;;71.15;;
44204;SDS011;30163;42.698;23.344;2022-11-15T12:00:44;162.75;;;70.25;;
44204;SDS011;30163;42.698;23.344;2022-11-15T12:03:28;163.70;;;70.80;;
44204;SDS011;30163;42.698;23.344;2022-11-15T12:06:01;167.45;;;71.60;;
44204;SDS011;30163;42.698;23.344;2022-11-15T12:09:04;162.07;;;73.45;;
44204;SDS011;30163;42.698;23.344;2022-11-15T12:13:53;171.32;;;75.03;;
44204;SDS011;30163;42.698;23.344;2022-11-15T12:18:54;172.68;;;71.65;;
44204;SDS011;30163;42.698;23.344;2022-11-15T12:23:51;183.52;;;76.53;;
44204;SDS011;30163;42.698;23.344;2022-11-15T12:26:21;158.35;;;69.32;;
44204;SDS011;30163;42.698;23.344;2022-11-15T12:28:54;174.27;;;71.85;;
44204;SDS011;30163;42.698;23.344;2022-11-15T12:34:00;167.23;;;74.00;;
44204;SDS011;30163;42.698;23.344;2022-11-15T12:36:42;159.20;;;70.10;;
44204;SDS011;30163;42.698;23.344;2022-11-15T12:39:09;180.25;;;74.95;;
44204;SDS011;30163;42.698;23.344;2022-11-15T12:41:36;158.25;;;70.60;;
44204;SDS011;30163;42.698;23.344;2022-11-15T12:44:04;166.15;;;73.22;;
44204;SDS011;30163;42.698;23.344;2022-11-15T13:30:35;151.10;;;64.25;;
44204;SDS011;30163;42.698;23.344;2022-11-15T13:33:08;158.63;;;65.20;;
44204;SDS011;30163;42.698;23.344;2022-11-15T13:35:38;152.07;;;64.63;;
44204;SDS011;30163;42.698;23.344;2022-11-15T13:38:05;151.55;;;66.18;;
44204;SDS011;30163;42.698;23.344;2022-11-15T13:40:34;153.40;;;61.95;;
44204;SDS011;30163;42.698;23.344;2022-11-15T13:43:15;154.63;;;66.32;;
44204;SDS011;30163;42.698;23.344;2022-11-15T13:48:56;168.07;;;66.38;;
44204;SDS011;30163;42.698;23.344;2022-11-15T13:56:39;150.95;;;66.53;;
44204;SDS011;30163;42.698;23.344;2022-11-15T13:59:08;150.18;;;63.92;;
44204;SDS011;30163;42.698;23.344;2022-11-15T14:02:12;163.63;;;66.15;;
44204;SDS011;30163;42.698;23.344;2022-11-15T14:05:01;147.15;;;60.85;;
44204;SDS011;30163;42.698;23.344;2022-11-15T14:07:27;154.35;;;62.40;;
44204;SDS011;30163;42.698;23.344;2022-11-15T14:09:53;163.13;;;66.72;;
44204;SDS011;30163;42.698;23.344;2022-11-15T14:12:49;156.15;;;67.70;;
44204;SDS011;30163;42.698;23.344;2022-11-15T14:15:19;156.45;;;67.05;;
44204;SDS011;30163;42.698;23.344;2022-11-15T14:17:51;167.35;;;68.57;;
44204;SDS011;30163;42.698;23.344;2022-11-15T14:22:54;170.43;;;72.15;;
44204;SDS011;30163;42.698;23.344;2022-11-15T14:25:24;192.93;;;78.70;;
44204;SDS011;30163;42.698;23.344;2022-11-15T14:30:42;183.70;;;79.78;;
44204;SDS011;30163;42.698;23.344;2022-11-15T14:33:53;195.98;;;79.45;;
44204;SDS011;30163;42.698;23.344;2022-11-15T14:36:17;180.05;;;79.45;;
44204;SDS011;30163;42.698;23.344;2022-11-15T14:38:44;184.93;;;76.65;;
44204;SDS011;30163;42.698;23.344;2022-11-15T14:43:46;182.32;;;78.47;;
44204;SDS011;30163;42.698;23.344;2022-11-15T14:46:11;186.52;;;80.68;;
44204;SDS011;30163;42.698;23.344;2022-11-15T14:48:37;176.68;;;76.65;;
44204;SDS011;30163;42.698;23.344;2022-11-15T14:51:02;183.40;;;77.30;;
44204;SDS011;30163;42.698;23.344;2022-11-15T14:53:28;181.82;;;74.50;;
44204;SDS011;30163;42.698;23.344;2022-11-15T14:55:53;214.73;;;89.20;;
44204;SDS011;30163;42.698;23.344;2022-11-15T14:58:19;203.27;;;85.60;;
44204;SDS011;30163;42.698;23.344;2022-11-15T15:00:44;196.95;;;84.38;;
44204;SDS011;30163;42.698;23.344;2022-11-15T15:03:09;195.45;;;77.28;;
44204;SDS011;30163;42.698;23.344;2022-11-15T15:05:39;180.63;;;75.72;;
44204;SDS011;30163;42.698;23.344;2022-11-15T15:08:06;171.45;;;75.85;;
44204;SDS011;30163;42.698;23.344;2022-11-15T15:10:33;184.73;;;75.97;;
44204;SDS011;30163;42.698;23.344;2022-11-15T15:13:00;183.35;;;75.22;;
44204;SDS011;30163;42.698;23.344;2022-11-15T15:15:29;178.45;;;74.63;;
44204;SDS011;30163;42.698;23.344;2022-11-15T15:18:05;185.70;;;76.15;;
44204;SDS011;30163;42.698;23.344;2022-11-15T15:20:31;182.32;;;77.75;;
44204;SDS011;30163;42.698;23.344;2022-11-15T15:22:57;182.48;;;75.88;;
44204;SDS011;30163;42.698;23.344;2022-11-15T15:25:23;178.85;;;72.88;;
44204;SDS011;30163;42.698;23.344;2022-11-15T15:27:52;183.60;;;79.07;;
44204;SDS011;30163;42.698;23.344;2022-11-15T15:30:19;196.45;;;79.00;;
44204;SDS011;30163;42.698;23.344;2022-11-15T15:32:44;174.80;;;74.65;;
44204;SDS011;30163;42.698;23.344;2022-11-15T15:35:13;185.65;;;74.35;;
44204;SDS011;30163;42.698;23.344;2022-11-15T15:37:40;174.88;;;71.75;;
44204;SDS011;30163;42.698;23.344;2022-11-15T15:40:20;189.23;;;72.53;;
44204;SDS011;30163;42.698;23.344;2022-11-15T15:42:46;187.32;;;74.75;;
44204;SDS011;30163;42.698;23.344;2022-11-15T15:45:12;180.05;;;74.28;;
44204;SDS011;30163;42.698;23.344;2022-11-15T15:47:38;189.73;;;73.22;;
44204;SDS011;30163;42.698;23.344;2022-11-15T15:50:09;182.52;;;72.35;;
44204;SDS011;30163;42.698;23.344;2022-11-15T15:52:53;186.90;;;75.15;;
44204;SDS011;30163;42.698;23.344;2022-11-15T15:55:23;180.50;;;71.55;;
44204;SDS011;30163;42.698;23.344;2022-11-15T15:57:49;190.48;;;75.80;;
44204;SDS011;30163;42.698;23.344;2022-11-15T16:00:15;191.02;;;75.75;;
44204;SDS011;30163;42.698;23.344;2022-11-15T16:02:41;186.48;;;74.43;;
44204;SDS011;30163;42.698;23.344;2022-11-15T16:05:07;198.73;;;81.15;;
44204;SDS011;30163;42.698;23.344;2022-11-15T16:07:33;206.07;;;85.55;;
44204;SDS011;30163;42.698;23.344;2022-11-15T16:09:58;230.95;;;93.97;;
44204;SDS011;30163;42.698;23.344;2022-11-15T16:12:31;237.50;;;95.40;;
44204;SDS011;30163;42.698;23.344;2022-11-15T16:14:58;234.48;;;89.80;;
44204;SDS011;30163;42.698;23.344;2022-11-15T16:17:25;248.52;;;97.07;;
44204;SDS011;30163;42.698;23.344;2022-11-15T16:19:52;242.57;;;100.07;;
44204;SDS011;30163;42.698;23.344;2022-11-15T16:22:17;247.75;;;101.93;;
44204;SDS011;30163;42.698;23.344;2022-11-15T16:24:43;269.77;;;115.68;;
44204;SDS011;30163;42.698;23.344;2022-11-15T16:27:13;258.15;;;104.80;;
44204;SDS011;30163;42.698;23.344;2022-11-15T16:29:40;271.27;;;109.25;;
44204;SDS011;30163;42.698;23.344;2022-11-15T16:32:05;282.42;;;110.90;;
44204;SDS011;30163;42.698;23.344;2022-11-15T16:34:30;300.83;;;114.22;;
44204;SDS011;30163;42.698;23.344;2022-11-15T16:36:56;273.88;;;104.47;;
44204;SDS011;30163;42.698;23.344;2022-11-15T16:39:21;283.92;;;112.25;;